sensor_id;sensor_type;location;lat;lon;timestamp;pressure;altitude;pressure_sealevel;temperature;humidity
10948;BME280;5526;42.070;24.752;2022-12-10T00:01:24;98521.03;;;8.87;100.00
10948;BME280;5526;42.070;24.752;2022-12-10T00:03:52;98497.84;;;8.68;100.00
10948;BME280;5526;42.070;24.752;2022-12-10T00:06:22;98496.91;;;8.89;100.00
10948;BME280;5526;42.070;24.752;2022-12-10T00:08:51;98523.72;;;9.02;100.00
10948;BME280;5526;42.070;24.752;2022-12-10T00:11:20;98497.94;;;8.83;100.00
10948;BME280;5526;42.070;24.752;2022-12-10T00:13:49;98522.38;;;8.94;100.00
10948;BME280;5526;42.070;24.752;2022-12-10T00:16:18;98524.47;;;8.92;100.00
10948;BME280;5526;42.070;24.752;2022-12-10T00:18:48;98532.13;;;8.99;100.00
10948;BME280;5526;42.070;24.752;2022-12-10T00:21:17;98483.38;;;8.61;100.00
10948;BME280;5526;42.070;24.752;2022-12-10T00:23:45;98539.13;;;8.88;100.00
10948;BME280;5526;42.070;24.752;2022-12-10T00:26:15;98523.63;;;8.81;100.00
10948;BME280;5526;42.070;24.752;2022-12-10T00:28:44;98516.28;;;8.83;100.00
10948;BME280;5526;42.070;24.752;2022-12-10T00:31:13;98556.16;;;8.85;100.00
10948;BME280;5526;42.070;24.752;2022-12-10T00:33:41;98520.50;;;8.84;100.00
10948;BME280;5526;42.070;24.752;2022-12-10T00:36:14;98515.50;;;8.88;100.00
10948;BME280;5526;42.070;24.752;2022-12-10T00:38:42;98569.16;;;9.07;100.00
10948;BME280;5526;42.070;24.752;2022-12-10T00:41:10;98506.78;;;8.72;100.00
10948;BME280;5526;42.070;24.752;2022-12-10T00:43:39;98494.66;;;8.66;100.00
10948;BME280;5526;42.070;24.752;2022-12-10T00:46:06;98513.41;;;8.85;100.00
10948;BME280;5526;42.070;24.752;2022-12-10T00:48:35;98511.34;;;8.92;100.00
10948;BME280;5526;42.070;24.752;2022-12-10T00:51:05;98549.72;;;9.03;100.00
10948;BME280;5526;42.070;24.752;2022-12-10T00:53:36;98518.59;;;8.75;100.00
10948;BME280;5526;42.070;24.752;2022-12-10T00:56:05;98517.63;;;8.91;100.00
10948;BME280;5526;42.070;24.752;2022-12-10T00:58:35;98535.28;;;9.01;100.00
10948;BME280;5526;42.070;24.752;2022-12-10T01:01:11;98518.72;;;8.95;100.00
10948;BME280;5526;42.070;24.752;2022-12-10T01:03:39;98526.59;;;8.95;100.00
10948;BME280;5526;42.070;24.752;2022-12-10T01:06:09;98505.34;;;8.97;100.00
10948;BME280;5526;42.070;24.752;2022-12-10T01:08:39;98565.31;;;9.25;100.00
10948;BME280;5526;42.070;24.752;2022-12-10T01:11:07;98504.84;;;9.00;100.00
10948;BME280;5526;42.070;24.752;2022-12-10T01:13:36;98530.63;;;9.13;100.00
10948;BME280;5526;42.070;24.752;2022-12-10T01:16:05;98494.03;;;8.91;100.00
10948;BME280;5526;42.070;24.752;2022-12-10T01:18:33;98503.53;;;9.07;100.00
10948;BME280;5526;42.070;24.752;2022-12-10T01:21:01;98539.44;;;9.43;100.00
10948;BME280;5526;42.070;24.752;2022-12-10T01:23:31;98480.25;;;9.21;100.00
10948;BME280;5526;42.070;24.752;2022-12-10T01:26:03;98477.09;;;9.19;100.00
10948;BME280;5526;42.070;24.752;2022-12-10T01:28:33;98471.06;;;9.18;100.00
10948;BME280;5526;42.070;24.752;2022-12-10T01:31:02;98478.97;;;9.28;100.00
10948;BME280;5526;42.070;24.752;2022-12-10T01:33:30;98500.75;;;9.24;100.00
10948;BME280;5526;42.070;24.752;2022-12-10T01:36:02;98472.91;;;9.23;100.00
10948;BME280;5526;42.070;24.752;2022-12-10T01:38:30;98501.31;;;9.41;100.00
10948;BME280;5526;42.070;24.752;2022-12-10T01:40:58;98462.16;;;9.24;100.00
10948;BME280;5526;42.070;24.752;2022-12-10T01:43:27;98471.63;;;9.25;100.00
10948;BME280;5526;42.070;24.752;2022-12-10T01:45:55;98488.19;;;9.41;100.00
10948;BME280;5526;42.070;24.752;2022-12-10T01:48:23;98501.00;;;9.27;100.00
10948;BME280;5526;42.070;24.752;2022-12-10T01:50:51;98457.09;;;9.08;100.00
10948;BME280;5526;42.070;24.752;2022-12-10T01:53:19;98455.22;;;8.93;100.00
10948;BME280;5526;42.070;24.752;2022-12-10T01:55:49;98464.97;;;9.08;100.00
10948;BME280;5526;42.070;24.752;2022-12-10T01:58:18;98427.84;;;8.74;100.00
10948;BME280;5526;42.070;24.752;2022-12-10T02:00:55;98419.97;;;8.74;100.00
10948;BME280;5526;42.070;24.752;2022-12-10T02:03:32;98429.84;;;8.57;100.00
10948;BME280;5526;42.070;24.752;2022-12-10T02:06:10;98456.47;;;8.85;100.00
10948;BME280;5526;42.070;24.752;2022-12-10T02:08:45;98431.09;;;8.49;100.00
10948;BME280;5526;42.070;24.752;2022-12-10T02:11:19;98436.94;;;8.61;100.00
10948;BME280;5526;42.070;24.752;2022-12-10T02:13:53;98450.03;;;8.56;100.00
10948;BME280;5526;42.070;24.752;2022-12-10T02:16:31;98466.69;;;8.77;100.00
10948;BME280;5526;42.070;24.752;2022-12-10T02:19:07;98412.72;;;8.44;100.00
10948;BME280;5526;42.070;24.752;2022-12-10T02:21:40;98425.69;;;8.24;100.00
10948;BME280;5526;42.070;24.752;2022-12-10T02:24:12;98453.56;;;8.35;100.00
10948;BME280;5526;42.070;24.752;2022-12-10T02:26:45;98478.13;;;8.61;100.00
10948;BME280;5526;42.070;24.752;2022-12-10T02:29:19;98430.66;;;8.21;100.00
10948;BME280;5526;42.070;24.752;2022-12-10T02:31:51;98459.41;;;8.47;100.00
10948;BME280;5526;42.070;24.752;2022-12-10T02:34:21;98441.53;;;8.39;100.00
10948;BME280;5526;42.070;24.752;2022-12-10T02:36:52;98469.19;;;8.57;100.00
10948;BME280;5526;42.070;24.752;2022-12-10T02:39:26;98459.81;;;8.29;100.00
10948;BME280;5526;42.070;24.752;2022-12-10T02:41:56;98497.09;;;8.36;100.00
10948;BME280;5526;42.070;24.752;2022-12-10T02:44:28;98444.72;;;7.83;100.00
10948;BME280;5526;42.070;24.752;2022-12-10T02:46:58;98447.22;;;8.00;100.00
10948;BME280;5526;42.070;24.752;2022-12-10T02:49:28;98508.28;;;8.27;100.00
10948;BME280;5526;42.070;24.752;2022-12-10T02:51:57;98446.28;;;7.84;100.00
10948;BME280;5526;42.070;24.752;2022-12-10T02:54:39;98471.94;;;8.09;100.00
10948;BME280;5526;42.070;24.752;2022-12-10T02:57:21;98417.25;;;7.86;100.00
10948;BME280;5526;42.070;24.752;2022-12-10T03:00:05;98444.84;;;7.98;100.00
10948;BME280;5526;42.070;24.752;2022-12-10T03:02:40;98446.22;;;8.06;100.00
10948;BME280;5526;42.070;24.752;2022-12-10T03:05:17;98439.13;;;8.01;100.00
10948;BME280;5526;42.070;24.752;2022-12-10T03:07:52;98472.31;;;8.22;100.00
10948;BME280;5526;42.070;24.752;2022-12-10T03:10:31;98423.53;;;7.85;100.00
10948;BME280;5526;42.070;24.752;2022-12-10T03:13:05;98463.50;;;8.33;100.00
10948;BME280;5526;42.070;24.752;2022-12-10T03:15:38;98433.88;;;8.33;100.00
10948;BME280;5526;42.070;24.752;2022-12-10T03:18:09;98425.81;;;8.39;100.00
10948;BME280;5526;42.070;24.752;2022-12-10T03:20:40;98446.97;;;8.33;100.00
10948;BME280;5526;42.070;24.752;2022-12-10T03:23:15;98410.59;;;8.10;100.00
10948;BME280;5526;42.070;24.752;2022-12-10T03:25:44;98452.28;;;8.38;100.00
10948;BME280;5526;42.070;24.752;2022-12-10T03:28:13;98408.03;;;8.15;100.00
10948;BME280;5526;42.070;24.752;2022-12-10T03:30:44;98413.91;;;8.22;100.00
10948;BME280;5526;42.070;24.752;2022-12-10T03:33:14;98389.88;;;8.03;100.00
10948;BME280;5526;42.070;24.752;2022-12-10T03:35:42;98409.13;;;8.19;100.00
10948;BME280;5526;42.070;24.752;2022-12-10T03:38:10;98395.56;;;7.95;100.00
10948;BME280;5526;42.070;24.752;2022-12-10T03:40:40;98418.09;;;8.23;100.00
10948;BME280;5526;42.070;24.752;2022-12-10T03:43:08;98410.50;;;8.26;100.00
10948;BME280;5526;42.070;24.752;2022-12-10T03:45:36;98428.09;;;8.31;100.00
10948;BME280;5526;42.070;24.752;2022-12-10T03:48:05;98420.16;;;8.21;100.00
10948;BME280;5526;42.070;24.752;2022-12-10T03:50:33;98373.28;;;7.93;100.00
10948;BME280;5526;42.070;24.752;2022-12-10T03:53:00;98394.38;;;8.08;100.00
10948;BME280;5526;42.070;24.752;2022-12-10T03:55:28;98394.09;;;8.04;100.00
10948;BME280;5526;42.070;24.752;2022-12-10T03:57:56;98455.72;;;8.43;100.00
10948;BME280;5526;42.070;24.752;2022-12-10T04:00:24;98409.78;;;8.36;100.00
10948;BME280;5526;42.070;24.752;2022-12-10T04:02:51;98399.59;;;8.39;100.00
10948;BME280;5526;42.070;24.752;2022-12-10T04:05:21;98418.00;;;8.54;100.00
10948;BME280;5526;42.070;24.752;2022-12-10T04:07:48;98400.13;;;8.41;100.00
10948;BME280;5526;42.070;24.752;2022-12-10T04:10:17;98417.50;;;8.52;100.00
10948;BME280;5526;42.070;24.752;2022-12-10T04:12:44;98396.16;;;8.34;100.00
10948;BME280;5526;42.070;24.752;2022-12-10T04:15:32;98401.16;;;8.40;100.00
10948;BME280;5526;42.070;24.752;2022-12-10T04:18:17;98385.09;;;8.32;100.00
10948;BME280;5526;42.070;24.752;2022-12-10T04:20:46;98382.50;;;8.32;100.00
10948;BME280;5526;42.070;24.752;2022-12-10T04:23:31;98400.13;;;8.46;100.00
10948;BME280;5526;42.070;24.752;2022-12-10T04:26:16;98386.16;;;8.31;100.00
10948;BME280;5526;42.070;24.752;2022-12-10T04:29:01;98391.75;;;8.44;100.00
10948;BME280;5526;42.070;24.752;2022-12-10T04:31:29;98414.94;;;8.67;100.00
10948;BME280;5526;42.070;24.752;2022-12-10T04:33:57;98386.75;;;8.43;100.00
10948;BME280;5526;42.070;24.752;2022-12-10T04:36:26;98377.31;;;8.42;100.00
10948;BME280;5526;42.070;24.752;2022-12-10T04:38:54;98373.13;;;8.04;100.00
10948;BME280;5526;42.070;24.752;2022-12-10T04:41:22;98406.44;;;8.45;100.00
10948;BME280;5526;42.070;24.752;2022-12-10T04:43:50;98404.97;;;8.23;100.00
10948;BME280;5526;42.070;24.752;2022-12-10T04:46:17;98433.25;;;8.57;100.00
10948;BME280;5526;42.070;24.752;2022-12-10T04:48:45;98443.97;;;8.51;100.00
10948;BME280;5526;42.070;24.752;2022-12-10T04:51:13;98439.34;;;8.31;100.00
10948;BME280;5526;42.070;24.752;2022-12-10T04:53:43;98440.59;;;8.55;100.00
10948;BME280;5526;42.070;24.752;2022-12-10T04:56:11;98453.94;;;8.54;100.00
10948;BME280;5526;42.070;24.752;2022-12-10T04:58:38;98399.84;;;8.38;100.00
10948;BME280;5526;42.070;24.752;2022-12-10T05:01:09;98438.56;;;8.67;100.00
10948;BME280;5526;42.070;24.752;2022-12-10T05:03:39;98381.03;;;8.51;100.00
10948;BME280;5526;42.070;24.752;2022-12-10T05:06:08;98423.41;;;8.84;100.00
10948;BME280;5526;42.070;24.752;2022-12-10T05:08:37;98393.91;;;8.62;100.00
10948;BME280;5526;42.070;24.752;2022-12-10T05:11:09;98378.34;;;8.41;100.00
10948;BME280;5526;42.070;24.752;2022-12-10T05:13:37;98385.81;;;8.64;100.00
10948;BME280;5526;42.070;24.752;2022-12-10T05:16:07;98369.81;;;8.65;100.00
10948;BME280;5526;42.070;24.752;2022-12-10T05:18:35;98383.09;;;8.49;100.00
10948;BME280;5526;42.070;24.752;2022-12-10T05:21:05;98392.91;;;8.63;100.00
10948;BME280;5526;42.070;24.752;2022-12-10T05:23:35;98382.91;;;8.55;100.00
10948;BME280;5526;42.070;24.752;2022-12-10T05:26:04;98393.47;;;8.75;100.00
10948;BME280;5526;42.070;24.752;2022-12-10T05:28:36;98427.72;;;9.11;100.00
10948;BME280;5526;42.070;24.752;2022-12-10T05:31:05;98400.03;;;8.73;100.00
10948;BME280;5526;42.070;24.752;2022-12-10T05:33:33;98414.69;;;8.69;100.00
10948;BME280;5526;42.070;24.752;2022-12-10T05:36:03;98380.56;;;8.64;100.00
10948;BME280;5526;42.070;24.752;2022-12-10T05:38:31;98371.88;;;8.58;100.00
10948;BME280;5526;42.070;24.752;2022-12-10T05:41:01;98364.75;;;8.49;100.00
10948;BME280;5526;42.070;24.752;2022-12-10T05:43:29;98379.25;;;8.61;100.00
10948;BME280;5526;42.070;24.752;2022-12-10T05:46:01;98416.03;;;8.71;100.00
10948;BME280;5526;42.070;24.752;2022-12-10T05:48:29;98405.16;;;8.53;100.00
10948;BME280;5526;42.070;24.752;2022-12-10T05:50:58;98385.72;;;8.49;100.00
10948;BME280;5526;42.070;24.752;2022-12-10T05:53:30;98419.72;;;8.75;100.00
10948;BME280;5526;42.070;24.752;2022-12-10T05:56:01;98393.88;;;8.52;100.00
10948;BME280;5526;42.070;24.752;2022-12-10T05:58:30;98379.25;;;8.61;100.00
10948;BME280;5526;42.070;24.752;2022-12-10T06:00:58;98378.56;;;8.81;100.00
10948;BME280;5526;42.070;24.752;2022-12-10T06:03:28;98366.69;;;8.68;100.00
10948;BME280;5526;42.070;24.752;2022-12-10T06:05:56;98400.13;;;8.98;100.00
10948;BME280;5526;42.070;24.752;2022-12-10T06:08:23;98370.44;;;8.82;100.00
10948;BME280;5526;42.070;24.752;2022-12-10T06:10:51;98357.25;;;8.67;100.00
10948;BME280;5526;42.070;24.752;2022-12-10T06:13:19;98407.50;;;9.11;100.00
10948;BME280;5526;42.070;24.752;2022-12-10T06:15:47;98377.50;;;8.92;100.00
10948;BME280;5526;42.070;24.752;2022-12-10T06:18:15;98359.44;;;9.01;100.00
10948;BME280;5526;42.070;24.752;2022-12-10T06:20:44;98374.38;;;8.95;100.00
10948;BME280;5526;42.070;24.752;2022-12-10T06:23:12;98366.81;;;8.99;100.00
10948;BME280;5526;42.070;24.752;2022-12-10T06:25:40;98370.75;;;9.01;100.00
10948;BME280;5526;42.070;24.752;2022-12-10T06:28:09;98394.16;;;9.33;100.00
10948;BME280;5526;42.070;24.752;2022-12-10T06:30:37;98414.66;;;9.41;100.00
10948;BME280;5526;42.070;24.752;2022-12-10T06:33:06;98353.19;;;9.17;100.00
10948;BME280;5526;42.070;24.752;2022-12-10T06:35:34;98378.41;;;9.28;100.00
10948;BME280;5526;42.070;24.752;2022-12-10T06:38:03;98399.44;;;9.38;100.00
10948;BME280;5526;42.070;24.752;2022-12-10T06:40:31;98397.34;;;10.45;100.00
10948;BME280;5526;42.070;24.752;2022-12-10T06:42:59;98404.22;;;9.96;100.00
10948;BME280;5526;42.070;24.752;2022-12-10T06:45:26;98357.72;;;9.76;100.00
10948;BME280;5526;42.070;24.752;2022-12-10T06:47:55;98392.66;;;9.72;100.00
10948;BME280;5526;42.070;24.752;2022-12-10T06:50:22;98407.91;;;9.75;100.00
10948;BME280;5526;42.070;24.752;2022-12-10T06:52:50;98377.66;;;9.62;100.00
10948;BME280;5526;42.070;24.752;2022-12-10T06:55:20;98427.88;;;9.91;100.00
10948;BME280;5526;42.070;24.752;2022-12-10T06:57:50;98358.97;;;9.29;100.00
10948;BME280;5526;42.070;24.752;2022-12-10T07:00:19;98398.69;;;9.52;100.00
10948;BME280;5526;42.070;24.752;2022-12-10T07:02:47;98377.91;;;9.36;100.00
10948;BME280;5526;42.070;24.752;2022-12-10T07:05:15;98385.53;;;9.37;100.00
10948;BME280;5526;42.070;24.752;2022-12-10T07:07:43;98401.06;;;9.54;100.00
10948;BME280;5526;42.070;24.752;2022-12-10T07:10:11;98422.03;;;9.44;100.00
10948;BME280;5526;42.070;24.752;2022-12-10T07:12:41;98393.63;;;9.16;100.00
10948;BME280;5526;42.070;24.752;2022-12-10T07:15:09;98390.06;;;8.80;100.00
10948;BME280;5526;42.070;24.752;2022-12-10T07:17:38;98410.56;;;8.88;100.00
10948;BME280;5526;42.070;24.752;2022-12-10T07:20:06;98423.97;;;8.87;100.00
10948;BME280;5526;42.070;24.752;2022-12-10T07:22:34;98372.75;;;8.74;100.00
10948;BME280;5526;42.070;24.752;2022-12-10T07:25:02;98431.94;;;9.12;100.00
10948;BME280;5526;42.070;24.752;2022-12-10T07:27:30;98382.69;;;8.72;100.00
10948;BME280;5526;42.070;24.752;2022-12-10T07:29:59;98362.97;;;8.59;100.00
10948;BME280;5526;42.070;24.752;2022-12-10T07:32:27;98360.91;;;8.66;100.00
10948;BME280;5526;42.070;24.752;2022-12-10T07:34:55;98356.56;;;8.97;100.00
10948;BME280;5526;42.070;24.752;2022-12-10T07:37:23;98366.56;;;9.15;100.00
10948;BME280;5526;42.070;24.752;2022-12-10T07:39:51;98381.84;;;9.28;100.00
10948;BME280;5526;42.070;24.752;2022-12-10T07:42:19;98374.69;;;9.09;100.00
10948;BME280;5526;42.070;24.752;2022-12-10T07:44:48;98368.69;;;9.13;100.00
10948;BME280;5526;42.070;24.752;2022-12-10T07:47:18;98372.09;;;9.19;100.00
10948;BME280;5526;42.070;24.752;2022-12-10T07:49:47;98398.94;;;9.56;100.00
10948;BME280;5526;42.070;24.752;2022-12-10T07:52:15;98401.84;;;9.69;100.00
10948;BME280;5526;42.070;24.752;2022-12-10T07:54:42;98401.59;;;9.81;100.00
10948;BME280;5526;42.070;24.752;2022-12-10T07:57:10;98383.72;;;9.88;100.00
10948;BME280;5526;42.070;24.752;2022-12-10T07:59:39;98391.09;;;9.81;100.00
10948;BME280;5526;42.070;24.752;2022-12-10T08:02:08;98361.41;;;9.75;100.00
10948;BME280;5526;42.070;24.752;2022-12-10T08:04:37;98408.44;;;10.17;100.00
10948;BME280;5526;42.070;24.752;2022-12-10T08:07:05;98397.13;;;10.16;100.00
10948;BME280;5526;42.070;24.752;2022-12-10T08:09:33;98351.38;;;9.97;100.00
10948;BME280;5526;42.070;24.752;2022-12-10T08:12:01;98342.72;;;10.02;100.00
10948;BME280;5526;42.070;24.752;2022-12-10T08:14:29;98368.75;;;10.03;100.00
10948;BME280;5526;42.070;24.752;2022-12-10T08:16:57;98356.41;;;9.89;100.00
10948;BME280;5526;42.070;24.752;2022-12-10T08:19:25;98409.50;;;10.26;100.00
10948;BME280;5526;42.070;24.752;2022-12-10T08:21:54;98401.06;;;9.94;100.00
10948;BME280;5526;42.070;24.752;2022-12-10T08:24:22;98389.00;;;9.78;100.00
10948;BME280;5526;42.070;24.752;2022-12-10T08:26:50;98396.09;;;9.87;100.00
10948;BME280;5526;42.070;24.752;2022-12-10T08:29:18;98338.53;;;9.76;100.00
10948;BME280;5526;42.070;24.752;2022-12-10T08:31:46;98350.09;;;9.70;100.00
10948;BME280;5526;42.070;24.752;2022-12-10T08:34:16;98344.84;;;9.70;100.00
10948;BME280;5526;42.070;24.752;2022-12-10T08:36:45;98375.59;;;9.94;100.00
10948;BME280;5526;42.070;24.752;2022-12-10T08:39:14;98335.91;;;9.76;100.00
10948;BME280;5526;42.070;24.752;2022-12-10T08:41:42;98378.47;;;9.88;100.00
10948;BME280;5526;42.070;24.752;2022-12-10T08:44:11;98343.53;;;9.87;100.00
10948;BME280;5526;42.070;24.752;2022-12-10T08:46:39;98375.28;;;10.41;100.00
10948;BME280;5526;42.070;24.752;2022-12-10T08:49:07;98370.00;;;10.41;100.00
10948;BME280;5526;42.070;24.752;2022-12-10T08:51:35;98330.09;;;10.14;100.00
10948;BME280;5526;42.070;24.752;2022-12-10T08:54:03;98313.75;;;10.27;100.00
10948;BME280;5526;42.070;24.752;2022-12-10T08:56:33;98331.91;;;10.33;100.00
10948;BME280;5526;42.070;24.752;2022-12-10T08:59:02;98325.63;;;10.29;100.00
10948;BME280;5526;42.070;24.752;2022-12-10T09:01:29;98374.97;;;10.57;100.00
10948;BME280;5526;42.070;24.752;2022-12-10T09:03:57;98310.78;;;10.53;100.00
10948;BME280;5526;42.070;24.752;2022-12-10T09:06:26;98337.78;;;10.79;100.00
10948;BME280;5526;42.070;24.752;2022-12-10T09:08:54;98294.41;;;10.66;100.00
10948;BME280;5526;42.070;24.752;2022-12-10T09:11:24;98327.44;;;10.97;100.00
10948;BME280;5526;42.070;24.752;2022-12-10T09:13:54;98317.19;;;10.86;100.00
10948;BME280;5526;42.070;24.752;2022-12-10T09:16:27;98294.00;;;10.98;100.00
10948;BME280;5526;42.070;24.752;2022-12-10T09:18:55;98268.28;;;11.23;100.00
10948;BME280;5526;42.070;24.752;2022-12-10T09:21:24;98291.16;;;11.28;100.00
10948;BME280;5526;42.070;24.752;2022-12-10T09:23:52;98261.56;;;11.36;100.00
10948;BME280;5526;42.070;24.752;2022-12-10T09:26:20;98292.19;;;11.65;100.00
10948;BME280;5526;42.070;24.752;2022-12-10T09:28:48;98275.66;;;11.55;100.00
10948;BME280;5526;42.070;24.752;2022-12-10T09:31:19;98270.09;;;11.61;100.00
10948;BME280;5526;42.070;24.752;2022-12-10T09:33:48;98259.66;;;11.80;100.00
10948;BME280;5526;42.070;24.752;2022-12-10T09:36:17;98275.59;;;12.17;100.00
10948;BME280;5526;42.070;24.752;2022-12-10T09:38:45;98279.00;;;12.41;100.00
10948;BME280;5526;42.070;24.752;2022-12-10T09:41:27;98285.75;;;12.70;100.00
10948;BME280;5526;42.070;24.752;2022-12-10T09:44:05;98301.53;;;12.75;100.00
10948;BME280;5526;42.070;24.752;2022-12-10T09:46:45;98240.50;;;12.40;100.00
10948;BME280;5526;42.070;24.752;2022-12-10T09:49:24;98251.38;;;12.57;100.00
10948;BME280;5526;42.070;24.752;2022-12-10T09:52:00;98237.44;;;12.51;100.00
10948;BME280;5526;42.070;24.752;2022-12-10T09:54:32;98208.13;;;12.53;100.00
10948;BME280;5526;42.070;24.752;2022-12-10T09:57:01;98220.56;;;12.71;100.00
10948;BME280;5526;42.070;24.752;2022-12-10T09:59:36;98198.28;;;12.77;100.00
10948;BME280;5526;42.070;24.752;2022-12-10T10:02:19;98219.66;;;12.99;100.00
10948;BME280;5526;42.070;24.752;2022-12-10T10:04:48;98254.56;;;13.47;100.00
10948;BME280;5526;42.070;24.752;2022-12-10T10:07:20;98221.63;;;13.39;100.00
10948;BME280;5526;42.070;24.752;2022-12-10T10:09:49;98211.25;;;14.02;100.00
10948;BME280;5526;42.070;24.752;2022-12-10T10:12:18;98228.69;;;14.03;100.00
10948;BME280;5526;42.070;24.752;2022-12-10T10:14:46;98214.47;;;13.72;100.00
10948;BME280;5526;42.070;24.752;2022-12-10T10:17:20;98202.81;;;13.73;100.00
10948;BME280;5526;42.070;24.752;2022-12-10T10:19:50;98214.47;;;13.85;100.00
10948;BME280;5526;42.070;24.752;2022-12-10T10:22:17;98207.75;;;13.47;100.00
10948;BME280;5526;42.070;24.752;2022-12-10T10:24:46;98208.56;;;13.48;100.00
10948;BME280;5526;42.070;24.752;2022-12-10T10:27:15;98217.63;;;13.42;100.00
10948;BME280;5526;42.070;24.752;2022-12-10T10:29:44;98182.81;;;13.53;100.00
10948;BME280;5526;42.070;24.752;2022-12-10T10:32:17;98247.50;;;14.01;100.00
10948;BME280;5526;42.070;24.752;2022-12-10T10:34:47;98171.47;;;13.80;100.00
10948;BME280;5526;42.070;24.752;2022-12-10T10:37:21;98172.56;;;13.65;100.00
10948;BME280;5526;42.070;24.752;2022-12-10T10:39:50;98158.81;;;13.63;100.00
10948;BME280;5526;42.070;24.752;2022-12-10T10:42:27;98195.69;;;14.00;100.00
10948;BME280;5526;42.070;24.752;2022-12-10T10:45:02;98154.34;;;13.91;100.00
10948;BME280;5526;42.070;24.752;2022-12-10T10:47:34;98169.41;;;14.17;100.00
10948;BME280;5526;42.070;24.752;2022-12-10T10:50:03;98135.00;;;14.17;100.00
10948;BME280;5526;42.070;24.752;2022-12-10T10:52:37;98146.69;;;14.30;100.00
10948;BME280;5526;42.070;24.752;2022-12-10T10:55:08;98135.28;;;14.16;100.00
10948;BME280;5526;42.070;24.752;2022-12-10T10:57:56;98153.13;;;14.10;100.00
10948;BME280;5526;42.070;24.752;2022-12-10T11:00:24;98163.31;;;14.30;100.00
10948;BME280;5526;42.070;24.752;2022-12-10T11:02:53;98136.78;;;14.08;100.00
10948;BME280;5526;42.070;24.752;2022-12-10T11:05:23;98158.63;;;14.27;100.00
10948;BME280;5526;42.070;24.752;2022-12-10T11:07:57;98134.22;;;14.17;100.00
10948;BME280;5526;42.070;24.752;2022-12-10T11:10:28;98128.25;;;14.11;100.00
10948;BME280;5526;42.070;24.752;2022-12-10T11:12:57;98132.66;;;14.02;100.00
10948;BME280;5526;42.070;24.752;2022-12-10T11:15:34;98129.66;;;13.68;100.00
10948;BME280;5526;42.070;24.752;2022-12-10T11:18:23;98133.75;;;13.88;100.00
10948;BME280;5526;42.070;24.752;2022-12-10T11:21:00;98141.88;;;14.05;100.00
10948;BME280;5526;42.070;24.752;2022-12-10T11:23:30;98120.22;;;14.03;100.00
10948;BME280;5526;42.070;24.752;2022-12-10T11:26:05;98115.72;;;14.03;100.00
10948;BME280;5526;42.070;24.752;2022-12-10T11:28:46;98117.50;;;13.94;100.00
10948;BME280;5526;42.070;24.752;2022-12-10T11:31:28;98135.59;;;14.01;100.00
10948;BME280;5526;42.070;24.752;2022-12-10T11:34:09;98125.94;;;13.83;100.00
10948;BME280;5526;42.070;24.752;2022-12-10T11:36:46;98150.13;;;14.03;100.00
10948;BME280;5526;42.070;24.752;2022-12-10T11:39:24;98122.88;;;14.03;100.00
10948;BME280;5526;42.070;24.752;2022-12-10T11:42:00;98127.97;;;14.13;100.00
10948;BME280;5526;42.070;24.752;2022-12-10T11:44:35;98067.06;;;13.91;100.00
10948;BME280;5526;42.070;24.752;2022-12-10T11:47:39;98057.94;;;13.83;100.00
10948;BME280;5526;42.070;24.752;2022-12-10T11:50:23;98050.81;;;13.70;100.00
10948;BME280;5526;42.070;24.752;2022-12-10T11:53:01;98056.94;;;13.93;100.00
10948;BME280;5526;42.070;24.752;2022-12-10T11:55:38;98048.34;;;13.87;100.00
10948;BME280;5526;42.070;24.752;2022-12-10T11:58:31;98060.13;;;13.81;100.00
10948;BME280;5526;42.070;24.752;2022-12-10T12:01:06;98081.56;;;13.66;100.00
10948;BME280;5526;42.070;24.752;2022-12-10T12:04:03;98059.34;;;13.40;100.00
10948;BME280;5526;42.070;24.752;2022-12-10T12:09:51;98011.50;;;13.28;100.00
10948;BME280;5526;42.070;24.752;2022-12-10T12:12:30;98074.72;;;13.52;100.00
10948;BME280;5526;42.070;24.752;2022-12-10T12:15:04;98050.44;;;13.50;100.00
10948;BME280;5526;42.070;24.752;2022-12-10T12:17:42;98058.63;;;13.75;100.00
10948;BME280;5526;42.070;24.752;2022-12-10T12:20:16;98025.78;;;13.54;100.00
10948;BME280;5526;42.070;24.752;2022-12-10T12:22:48;98058.47;;;13.72;100.00
10948;BME280;5526;42.070;24.752;2022-12-10T12:25:23;98047.69;;;13.68;100.00
10948;BME280;5526;42.070;24.752;2022-12-10T12:27:58;97999.06;;;13.42;100.00
10948;BME280;5526;42.070;24.752;2022-12-10T12:30:32;98021.16;;;13.60;100.00
10948;BME280;5526;42.070;24.752;2022-12-10T12:33:04;98009.53;;;13.47;100.00
10948;BME280;5526;42.070;24.752;2022-12-10T12:35:38;97989.31;;;13.29;100.00
10948;BME280;5526;42.070;24.752;2022-12-10T12:38:21;98038.19;;;13.67;100.00
10948;BME280;5526;42.070;24.752;2022-12-10T12:40:54;98022.75;;;13.47;100.00
10948;BME280;5526;42.070;24.752;2022-12-10T12:43:32;98064.31;;;14.53;100.00
10948;BME280;5526;42.070;24.752;2022-12-10T12:46:10;98000.97;;;13.77;100.00
10948;BME280;5526;42.070;24.752;2022-12-10T12:48:45;97989.28;;;13.56;100.00
10948;BME280;5526;42.070;24.752;2022-12-10T12:51:19;98008.03;;;13.68;100.00
10948;BME280;5526;42.070;24.752;2022-12-10T12:53:48;98009.03;;;13.72;100.00
10948;BME280;5526;42.070;24.752;2022-12-10T12:56:25;98027.78;;;13.84;100.00
10948;BME280;5526;42.070;24.752;2022-12-10T12:59:04;98013.91;;;13.65;100.00
10948;BME280;5526;42.070;24.752;2022-12-10T13:01:41;98042.78;;;13.75;100.00
10948;BME280;5526;42.070;24.752;2022-12-10T13:04:11;98016.44;;;13.70;100.00
10948;BME280;5526;42.070;24.752;2022-12-10T13:06:41;97983.22;;;13.42;100.00
10948;BME280;5526;42.070;24.752;2022-12-10T13:09:27;97991.91;;;13.56;100.00
10948;BME280;5526;42.070;24.752;2022-12-10T13:12:24;98039.53;;;13.78;100.00
10948;BME280;5526;42.070;24.752;2022-12-10T13:15:11;97996.22;;;13.52;100.00
10948;BME280;5526;42.070;24.752;2022-12-10T13:18:01;97993.09;;;13.50;100.00
10948;BME280;5526;42.070;24.752;2022-12-10T13:20:32;98040.81;;;13.81;100.00
10948;BME280;5526;42.070;24.752;2022-12-10T13:23:03;98031.59;;;13.78;100.00